sensor_id;sensor_type;location;lat;lon;timestamp;P1;durP1;ratioP1;P2;durP2;ratioP2
56399;SDS011;42298;53.638;9.876;2024-02-14T00:00:28;6.90;;;3.17;;
56399;SDS011;42298;53.638;9.876;2024-02-14T00:02:53;10.97;;;3.40;;
56399;SDS011;42298;53.638;9.876;2024-02-14T00:05:18;5.73;;;2.67;;
56399;SDS011;42298;53.638;9.876;2024-02-14T00:07:44;6.87;;;2.80;;
56399;SDS011;42298;53.638;9.876;2024-02-14T00:10:09;7.83;;;3.00;;
56399;SDS011;42298;53.638;9.876;2024-02-14T00:12:35;6.30;;;2.73;;
56399;SDS011;42298;53.638;9.876;2024-02-14T00:15:02;7.40;;;3.03;;
56399;SDS011;42298;53.638;9.876;2024-02-14T00:17:29;9.23;;;2.93;;
56399;SDS011;42298;53.638;9.876;2024-02-14T00:19:54;7.93;;;3.10;;
56399;SDS011;42298;53.638;9.876;2024-02-14T00:22:20;7.47;;;2.70;;
56399;SDS011;42298;53.638;9.876;2024-02-14T00:24:46;7.90;;;3.27;;
56399;SDS011;42298;53.638;9.876;2024-02-14T00:27:11;7.07;;;2.73;;
56399;SDS011;42298;53.638;9.876;2024-02-14T00:29:39;8.07;;;3.10;;
56399;SDS011;42298;53.638;9.876;2024-02-14T00:32:04;6.60;;;2.77;;
56399;SDS011;42298;53.638;9.876;2024-02-14T00:34:30;8.63;;;2.90;;
56399;SDS011;42298;53.638;9.876;2024-02-14T00:36:55;7.33;;;3.30;;
56399;SDS011;42298;53.638;9.876;2024-02-14T00:39:20;8.77;;;2.80;;
56399;SDS011;42298;53.638;9.876;2024-02-14T00:41:46;5.83;;;2.73;;
56399;SDS011;42298;53.638;9.876;2024-02-14T00:44:12;8.53;;;3.00;;
56399;SDS011;42298;53.638;9.876;2024-02-14T00:46:38;8.50;;;3.27;;
56399;SDS011;42298;53.638;9.876;2024-02-14T00:49:03;4.97;;;2.80;;
56399;SDS011;42298;53.638;9.876;2024-02-14T00:51:29;7.50;;;2.90;;
56399;SDS011;42298;53.638;9.876;2024-02-14T00:53:54;7.93;;;2.83;;
56399;SDS011;42298;53.638;9.876;2024-02-14T00:56:19;12.10;;;3.23;;
56399;SDS011;42298;53.638;9.876;2024-02-14T00:58:45;9.30;;;3.13;;
56399;SDS011;42298;53.638;9.876;2024-02-14T01:01:10;6.67;;;3.17;;
56399;SDS011;42298;53.638;9.876;2024-02-14T01:03:37;5.10;;;2.90;;
56399;SDS011;42298;53.638;9.876;2024-02-14T01:06:02;8.60;;;3.27;;
56399;SDS011;42298;53.638;9.876;2024-02-14T01:08:28;5.93;;;2.93;;
56399;SDS011;42298;53.638;9.876;2024-02-14T01:10:53;7.00;;;2.80;;
56399;SDS011;42298;53.638;9.876;2024-02-14T01:13:19;6.23;;;2.70;;
56399;SDS011;42298;53.638;9.876;2024-02-14T01:15:44;8.43;;;2.60;;
56399;SDS011;42298;53.638;9.876;2024-02-14T01:18:09;6.40;;;3.07;;
56399;SDS011;42298;53.638;9.876;2024-02-14T01:20:35;5.53;;;2.77;;
56399;SDS011;42298;53.638;9.876;2024-02-14T01:23:00;7.80;;;3.40;;
56399;SDS011;42298;53.638;9.876;2024-02-14T01:25:26;9.97;;;3.47;;
56399;SDS011;42298;53.638;9.876;2024-02-14T01:27:51;5.80;;;2.63;;
56399;SDS011;42298;53.638;9.876;2024-02-14T01:30:17;7.43;;;3.53;;
56399;SDS011;42298;53.638;9.876;2024-02-14T01:32:43;8.07;;;3.57;;
56399;SDS011;42298;53.638;9.876;2024-02-14T01:35:08;8.97;;;3.00;;
56399;SDS011;42298;53.638;9.876;2024-02-14T01:37:34;8.13;;;3.37;;
56399;SDS011;42298;53.638;9.876;2024-02-14T01:40:00;8.37;;;3.10;;
56399;SDS011;42298;53.638;9.876;2024-02-14T01:42:25;8.70;;;4.03;;
56399;SDS011;42298;53.638;9.876;2024-02-14T01:44:52;8.53;;;3.20;;
56399;SDS011;42298;53.638;9.876;2024-02-14T01:47:19;9.10;;;3.53;;
56399;SDS011;42298;53.638;9.876;2024-02-14T01:49:45;8.40;;;3.90;;
56399;SDS011;42298;53.638;9.876;2024-02-14T01:52:12;7.03;;;3.33;;
56399;SDS011;42298;53.638;9.876;2024-02-14T01:54:37;8.30;;;3.93;;
56399;SDS011;42298;53.638;9.876;2024-02-14T01:57:03;6.97;;;4.10;;
56399;SDS011;42298;53.638;9.876;2024-02-14T01:59:30;9.90;;;4.10;;
56399;SDS011;42298;53.638;9.876;2024-02-14T02:01:56;6.80;;;3.83;;
56399;SDS011;42298;53.638;9.876;2024-02-14T02:04:21;7.10;;;4.10;;
56399;SDS011;42298;53.638;9.876;2024-02-14T02:06:47;8.70;;;4.10;;
56399;SDS011;42298;53.638;9.876;2024-02-14T02:09:12;9.17;;;4.10;;
56399;SDS011;42298;53.638;9.876;2024-02-14T02:11:50;8.53;;;3.90;;
56399;SDS011;42298;53.638;9.876;2024-02-14T02:14:18;7.90;;;3.97;;
56399;SDS011;42298;53.638;9.876;2024-02-14T02:16:44;9.87;;;4.10;;
56399;SDS011;42298;53.638;9.876;2024-02-14T02:19:10;9.40;;;4.10;;
56399;SDS011;42298;53.638;9.876;2024-02-14T02:21:36;8.87;;;3.90;;
56399;SDS011;42298;53.638;9.876;2024-02-14T02:24:02;10.17;;;4.17;;
56399;SDS011;42298;53.638;9.876;2024-02-14T02:26:27;8.83;;;4.27;;
56399;SDS011;42298;53.638;9.876;2024-02-14T02:28:53;8.13;;;4.07;;
56399;SDS011;42298;53.638;9.876;2024-02-14T02:31:19;8.70;;;4.07;;
56399;SDS011;42298;53.638;9.876;2024-02-14T02:33:44;10.47;;;4.33;;
56399;SDS011;42298;53.638;9.876;2024-02-14T02:36:10;10.03;;;4.27;;
56399;SDS011;42298;53.638;9.876;2024-02-14T02:38:36;10.40;;;4.47;;
56399;SDS011;42298;53.638;9.876;2024-02-14T02:41:01;11.33;;;4.73;;
56399;SDS011;42298;53.638;9.876;2024-02-14T02:43:28;9.50;;;4.90;;
56399;SDS011;42298;53.638;9.876;2024-02-14T02:45:53;9.93;;;4.77;;
56399;SDS011;42298;53.638;9.876;2024-02-14T02:48:19;8.23;;;4.53;;
56399;SDS011;42298;53.638;9.876;2024-02-14T02:50:48;9.77;;;4.70;;
56399;SDS011;42298;53.638;9.876;2024-02-14T02:53:14;10.13;;;4.80;;
56399;SDS011;42298;53.638;9.876;2024-02-14T02:55:40;10.03;;;5.07;;
56399;SDS011;42298;53.638;9.876;2024-02-14T02:58:06;11.53;;;5.07;;
56399;SDS011;42298;53.638;9.876;2024-02-14T03:03:35;11.33;;;5.10;;
56399;SDS011;42298;53.638;9.876;2024-02-14T03:06:01;10.23;;;5.03;;
56399;SDS011;42298;53.638;9.876;2024-02-14T03:08:28;8.57;;;5.07;;
56399;SDS011;42298;53.638;9.876;2024-02-14T03:10:55;9.63;;;5.10;;
56399;SDS011;42298;53.638;9.876;2024-02-14T03:13:24;12.03;;;5.13;;
56399;SDS011;42298;53.638;9.876;2024-02-14T03:15:49;9.07;;;4.77;;
56399;SDS011;42298;53.638;9.876;2024-02-14T03:18:15;11.10;;;5.13;;
56399;SDS011;42298;53.638;9.876;2024-02-14T03:20:40;8.57;;;4.83;;
56399;SDS011;42298;53.638;9.876;2024-02-14T03:23:05;12.33;;;5.03;;
56399;SDS011;42298;53.638;9.876;2024-02-14T03:25:31;8.63;;;4.67;;
56399;SDS011;42298;53.638;9.876;2024-02-14T03:27:56;9.03;;;4.80;;
56399;SDS011;42298;53.638;9.876;2024-02-14T03:30:23;11.13;;;5.50;;
56399;SDS011;42298;53.638;9.876;2024-02-14T03:32:49;10.83;;;4.43;;
56399;SDS011;42298;53.638;9.876;2024-02-14T03:35:15;9.73;;;4.57;;
56399;SDS011;42298;53.638;9.876;2024-02-14T03:37:41;10.07;;;5.13;;
56399;SDS011;42298;53.638;9.876;2024-02-14T03:40:07;12.83;;;5.77;;
56399;SDS011;42298;53.638;9.876;2024-02-14T03:42:36;9.77;;;4.90;;
56399;SDS011;42298;53.638;9.876;2024-02-14T03:45:04;10.27;;;4.93;;
56399;SDS011;42298;53.638;9.876;2024-02-14T03:47:31;10.00;;;4.83;;
56399;SDS011;42298;53.638;9.876;2024-02-14T03:50:00;10.63;;;4.83;;
56399;SDS011;42298;53.638;9.876;2024-02-14T03:52:27;7.97;;;4.70;;
56399;SDS011;42298;53.638;9.876;2024-02-14T03:54:52;8.30;;;4.60;;
56399;SDS011;42298;53.638;9.876;2024-02-14T03:57:17;13.47;;;5.50;;
56399;SDS011;42298;53.638;9.876;2024-02-14T03:59:43;9.47;;;5.20;;
56399;SDS011;42298;53.638;9.876;2024-02-14T04:02:09;11.70;;;5.33;;
56399;SDS011;42298;53.638;9.876;2024-02-14T04:04:36;8.80;;;4.70;;
56399;SDS011;42298;53.638;9.876;2024-02-14T04:07:05;9.47;;;5.03;;
56399;SDS011;42298;53.638;9.876;2024-02-14T04:09:32;9.27;;;5.30;;
56399;SDS011;42298;53.638;9.876;2024-02-14T04:11:58;10.60;;;4.73;;
56399;SDS011;42298;53.638;9.876;2024-02-14T04:14:23;17.70;;;5.73;;
56399;SDS011;42298;53.638;9.876;2024-02-14T04:16:48;12.07;;;5.20;;
56399;SDS011;42298;53.638;9.876;2024-02-14T04:19:14;8.77;;;4.93;;
56399;SDS011;42298;53.638;9.876;2024-02-14T04:21:42;12.37;;;5.20;;
56399;SDS011;42298;53.638;9.876;2024-02-14T04:24:07;13.80;;;5.87;;
56399;SDS011;42298;53.638;9.876;2024-02-14T04:26:33;12.43;;;5.00;;
56399;SDS011;42298;53.638;9.876;2024-02-14T04:28:59;9.17;;;4.83;;
56399;SDS011;42298;53.638;9.876;2024-02-14T04:31:25;10.70;;;4.83;;
56399;SDS011;42298;53.638;9.876;2024-02-14T04:33:51;12.00;;;4.90;;
56399;SDS011;42298;53.638;9.876;2024-02-14T04:36:18;10.40;;;5.07;;
56399;SDS011;42298;53.638;9.876;2024-02-14T04:38:46;10.18;;;5.40;;
56399;SDS011;42298;53.638;9.876;2024-02-14T04:41:12;10.53;;;5.70;;
56399;SDS011;42298;53.638;9.876;2024-02-14T04:43:39;9.57;;;4.97;;
56399;SDS011;42298;53.638;9.876;2024-02-14T04:46:04;10.67;;;5.50;;
56399;SDS011;42298;53.638;9.876;2024-02-14T04:48:32;10.50;;;5.10;;
56399;SDS011;42298;53.638;9.876;2024-02-14T04:50:57;11.27;;;5.47;;
56399;SDS011;42298;53.638;9.876;2024-02-14T04:53:23;10.33;;;5.20;;
56399;SDS011;42298;53.638;9.876;2024-02-14T04:55:48;12.47;;;5.40;;
56399;SDS011;42298;53.638;9.876;2024-02-14T04:58:14;12.00;;;5.67;;
56399;SDS011;42298;53.638;9.876;2024-02-14T05:00:39;11.47;;;5.73;;
56399;SDS011;42298;53.638;9.876;2024-02-14T05:03:05;10.50;;;5.07;;
56399;SDS011;42298;53.638;9.876;2024-02-14T05:05:30;13.23;;;5.27;;
56399;SDS011;42298;53.638;9.876;2024-02-14T05:07:58;11.13;;;5.57;;
56399;SDS011;42298;53.638;9.876;2024-02-14T05:10:23;11.30;;;6.03;;
56399;SDS011;42298;53.638;9.876;2024-02-14T05:12:48;11.00;;;5.23;;
56399;SDS011;42298;53.638;9.876;2024-02-14T05:15:14;10.93;;;6.15;;
56399;SDS011;42298;53.638;9.876;2024-02-14T05:17:41;11.73;;;6.93;;
56399;SDS011;42298;53.638;9.876;2024-02-14T05:20:09;10.67;;;5.83;;
56399;SDS011;42298;53.638;9.876;2024-02-14T05:22:35;10.93;;;6.63;;
56399;SDS011;42298;53.638;9.876;2024-02-14T05:25:02;12.53;;;6.87;;
56399;SDS011;42298;53.638;9.876;2024-02-14T05:27:29;10.77;;;6.20;;
56399;SDS011;42298;53.638;9.876;2024-02-14T05:29:54;13.10;;;6.43;;
56399;SDS011;42298;53.638;9.876;2024-02-14T05:32:19;10.33;;;5.97;;
56399;SDS011;42298;53.638;9.876;2024-02-14T05:34:45;11.60;;;6.00;;
56399;SDS011;42298;53.638;9.876;2024-02-14T05:37:10;12.63;;;6.60;;
56399;SDS011;42298;53.638;9.876;2024-02-14T05:39:35;11.00;;;6.13;;
56399;SDS011;42298;53.638;9.876;2024-02-14T05:42:01;11.07;;;6.33;;
56399;SDS011;42298;53.638;9.876;2024-02-14T05:44:27;11.40;;;5.77;;
56399;SDS011;42298;53.638;9.876;2024-02-14T05:46:55;9.50;;;5.80;;
56399;SDS011;42298;53.638;9.876;2024-02-14T05:49:21;11.20;;;6.40;;
56399;SDS011;42298;53.638;9.876;2024-02-14T05:51:47;10.82;;;6.72;;
56399;SDS011;42298;53.638;9.876;2024-02-14T05:54:12;12.20;;;6.27;;
56399;SDS011;42298;53.638;9.876;2024-02-14T05:56:37;10.23;;;5.80;;
56399;SDS011;42298;53.638;9.876;2024-02-14T05:59:02;9.53;;;5.40;;
56399;SDS011;42298;53.638;9.876;2024-02-14T06:01:28;10.40;;;6.67;;
56399;SDS011;42298;53.638;9.876;2024-02-14T06:03:53;9.70;;;5.53;;
56399;SDS011;42298;53.638;9.876;2024-02-14T06:06:19;11.47;;;6.17;;
56399;SDS011;42298;53.638;9.876;2024-02-14T06:08:44;10.57;;;5.60;;
56399;SDS011;42298;53.638;9.876;2024-02-14T06:11:09;10.00;;;6.20;;
56399;SDS011;42298;53.638;9.876;2024-02-14T06:13:35;9.47;;;5.03;;
56399;SDS011;42298;53.638;9.876;2024-02-14T06:16:01;9.50;;;5.23;;
56399;SDS011;42298;53.638;9.876;2024-02-14T06:18:26;11.60;;;6.10;;
56399;SDS011;42298;53.638;9.876;2024-02-14T06:20:51;11.53;;;5.60;;
56399;SDS011;42298;53.638;9.876;2024-02-14T06:23:17;11.13;;;5.87;;
56399;SDS011;42298;53.638;9.876;2024-02-14T06:25:42;10.83;;;5.73;;
56399;SDS011;42298;53.638;9.876;2024-02-14T06:28:08;10.63;;;6.03;;
56399;SDS011;42298;53.638;9.876;2024-02-14T06:30:35;9.40;;;5.30;;
56399;SDS011;42298;53.638;9.876;2024-02-14T06:33:04;9.17;;;5.63;;
56399;SDS011;42298;53.638;9.876;2024-02-14T06:35:29;10.73;;;6.13;;
56399;SDS011;42298;53.638;9.876;2024-02-14T06:37:55;10.33;;;6.00;;
56399;SDS011;42298;53.638;9.876;2024-02-14T06:40:20;10.20;;;5.43;;
56399;SDS011;42298;53.638;9.876;2024-02-14T06:42:46;8.73;;;5.78;;
56399;SDS011;42298;53.638;9.876;2024-02-14T06:45:13;10.97;;;6.00;;
56399;SDS011;42298;53.638;9.876;2024-02-14T06:47:38;9.50;;;5.90;;
56399;SDS011;42298;53.638;9.876;2024-02-14T06:50:04;9.03;;;5.63;;
56399;SDS011;42298;53.638;9.876;2024-02-14T06:52:29;8.70;;;5.93;;
56399;SDS011;42298;53.638;9.876;2024-02-14T06:54:55;9.50;;;5.97;;
56399;SDS011;42298;53.638;9.876;2024-02-14T06:57:20;9.27;;;6.23;;
56399;SDS011;42298;53.638;9.876;2024-02-14T06:59:45;10.87;;;6.47;;
56399;SDS011;42298;53.638;9.876;2024-02-14T07:02:11;11.40;;;6.77;;
56399;SDS011;42298;53.638;9.876;2024-02-14T07:04:36;10.80;;;6.67;;
56399;SDS011;42298;53.638;9.876;2024-02-14T07:07:02;10.27;;;6.23;;
56399;SDS011;42298;53.638;9.876;2024-02-14T07:09:27;8.60;;;5.30;;
56399;SDS011;42298;53.638;9.876;2024-02-14T07:11:54;12.53;;;6.80;;
56399;SDS011;42298;53.638;9.876;2024-02-14T07:14:23;10.83;;;6.40;;
56399;SDS011;42298;53.638;9.876;2024-02-14T07:16:57;10.83;;;6.80;;
56399;SDS011;42298;53.638;9.876;2024-02-14T07:19:22;10.00;;;5.87;;
56399;SDS011;42298;53.638;9.876;2024-02-14T07:21:48;10.60;;;6.93;;
56399;SDS011;42298;53.638;9.876;2024-02-14T07:24:17;10.67;;;6.63;;
56399;SDS011;42298;53.638;9.876;2024-02-14T07:26:47;13.00;;;6.73;;
56399;SDS011;42298;53.638;9.876;2024-02-14T07:29:15;11.87;;;7.23;;
56399;SDS011;42298;53.638;9.876;2024-02-14T07:31:41;10.73;;;6.73;;
56399;SDS011;42298;53.638;9.876;2024-02-14T07:34:10;10.53;;;6.00;;
56399;SDS011;42298;53.638;9.876;2024-02-14T07:36:43;12.50;;;7.30;;
56399;SDS011;42298;53.638;9.876;2024-02-14T07:39:13;12.17;;;6.90;;
56399;SDS011;42298;53.638;9.876;2024-02-14T07:41:38;12.77;;;7.33;;
56399;SDS011;42298;53.638;9.876;2024-02-14T07:44:04;12.63;;;7.70;;
56399;SDS011;42298;53.638;9.876;2024-02-14T07:46:30;12.13;;;7.97;;
56399;SDS011;42298;53.638;9.876;2024-02-14T07:49:01;10.30;;;6.50;;
56399;SDS011;42298;53.638;9.876;2024-02-14T07:51:26;11.60;;;7.37;;
56399;SDS011;42298;53.638;9.876;2024-02-14T07:53:53;10.50;;;6.73;;
56399;SDS011;42298;53.638;9.876;2024-02-14T07:56:24;11.70;;;6.93;;
56399;SDS011;42298;53.638;9.876;2024-02-14T07:58:59;10.93;;;6.97;;
56399;SDS011;42298;53.638;9.876;2024-02-14T08:01:25;11.10;;;7.13;;
56399;SDS011;42298;53.638;9.876;2024-02-14T08:03:50;11.90;;;7.50;;
56399;SDS011;42298;53.638;9.876;2024-02-14T08:06:16;11.20;;;6.77;;
56399;SDS011;42298;53.638;9.876;2024-02-14T08:08:42;13.05;;;7.40;;
56399;SDS011;42298;53.638;9.876;2024-02-14T08:11:10;11.80;;;7.10;;
56399;SDS011;42298;53.638;9.876;2024-02-14T08:13:35;10.57;;;6.03;;
56399;SDS011;42298;53.638;9.876;2024-02-14T08:16:04;11.90;;;7.40;;
56399;SDS011;42298;53.638;9.876;2024-02-14T08:18:31;10.27;;;7.10;;
56399;SDS011;42298;53.638;9.876;2024-02-14T08:21:00;11.70;;;7.07;;
56399;SDS011;42298;53.638;9.876;2024-02-14T08:23:28;11.10;;;6.97;;
56399;SDS011;42298;53.638;9.876;2024-02-14T08:25:57;9.23;;;5.53;;
56399;SDS011;42298;53.638;9.876;2024-02-14T08:28:35;11.90;;;7.90;;
56399;SDS011;42298;53.638;9.876;2024-02-14T08:31:09;9.87;;;6.17;;
56399;SDS011;42298;53.638;9.876;2024-02-14T08:33:35;12.03;;;6.83;;
56399;SDS011;42298;53.638;9.876;2024-02-14T08:36:02;10.37;;;6.27;;
56399;SDS011;42298;53.638;9.876;2024-02-14T08:38:27;11.07;;;6.20;;
56399;SDS011;42298;53.638;9.876;2024-02-14T08:40:53;11.70;;;6.57;;
56399;SDS011;42298;53.638;9.876;2024-02-14T08:43:19;11.37;;;6.00;;
56399;SDS011;42298;53.638;9.876;2024-02-14T08:45:44;9.00;;;5.27;;
56399;SDS011;42298;53.638;9.876;2024-02-14T08:48:09;8.53;;;5.50;;
56399;SDS011;42298;53.638;9.876;2024-02-14T08:50:34;9.23;;;4.97;;
56399;SDS011;42298;53.638;9.876;2024-02-14T08:53:00;8.67;;;5.07;;
56399;SDS011;42298;53.638;9.876;2024-02-14T08:55:26;9.47;;;5.50;;
56399;SDS011;42298;53.638;9.876;2024-02-14T08:57:51;8.53;;;4.90;;
56399;SDS011;42298;53.638;9.876;2024-02-14T09:00:16;5.73;;;3.97;;
56399;SDS011;42298;53.638;9.876;2024-02-14T09:02:44;7.03;;;4.23;;
56399;SDS011;42298;53.638;9.876;2024-02-14T09:05:12;7.27;;;4.50;;
56399;SDS011;42298;53.638;9.876;2024-02-14T09:07:37;8.33;;;5.00;;
56399;SDS011;42298;53.638;9.876;2024-02-14T09:10:03;6.73;;;4.57;;
56399;SDS011;42298;53.638;9.876;2024-02-14T09:12:29;6.53;;;3.87;;
56399;SDS011;42298;53.638;9.876;2024-02-14T09:14:54;7.80;;;4.73;;
56399;SDS011;42298;53.638;9.876;2024-02-14T09:17:21;9.07;;;5.10;;
56399;SDS011;42298;53.638;9.876;2024-02-14T09:19:47;7.80;;;4.83;;
56399;SDS011;42298;53.638;9.876;2024-02-14T09:22:13;9.03;;;5.43;;
56399;SDS011;42298;53.638;9.876;2024-02-14T09:24:43;6.30;;;4.17;;
56399;SDS011;42298;53.638;9.876;2024-02-14T09:27:08;9.03;;;5.60;;
56399;SDS011;42298;53.638;9.876;2024-02-14T09:29:34;8.53;;;4.97;;
56399;SDS011;42298;53.638;9.876;2024-02-14T09:32:01;8.18;;;5.28;;
56399;SDS011;42298;53.638;9.876;2024-02-14T09:34:27;7.77;;;5.30;;
56399;SDS011;42298;53.638;9.876;2024-02-14T09:36:52;8.10;;;4.67;;
56399;SDS011;42298;53.638;9.876;2024-02-14T09:39:18;7.30;;;4.63;;
56399;SDS011;42298;53.638;9.876;2024-02-14T09:41:44;7.80;;;4.60;;
56399;SDS011;42298;53.638;9.876;2024-02-14T09:44:16;7.50;;;4.60;;
56399;SDS011;42298;53.638;9.876;2024-02-14T09:46:42;6.43;;;4.20;;
56399;SDS011;42298;53.638;9.876;2024-02-14T09:49:08;9.10;;;5.73;;
56399;SDS011;42298;53.638;9.876;2024-02-14T09:51:34;6.10;;;4.37;;
56399;SDS011;42298;53.638;9.876;2024-02-14T09:54:01;7.90;;;5.33;;
56399;SDS011;42298;53.638;9.876;2024-02-14T09:56:28;10.23;;;5.30;;
56399;SDS011;42298;53.638;9.876;2024-02-14T09:58:54;8.93;;;6.10;;
56399;SDS011;42298;53.638;9.876;2024-02-14T10:01:23;7.60;;;5.00;;
56399;SDS011;42298;53.638;9.876;2024-02-14T10:03:50;8.60;;;5.40;;
56399;SDS011;42298;53.638;9.876;2024-02-14T10:06:16;8.80;;;5.82;;
56399;SDS011;42298;53.638;9.876;2024-02-14T10:08:45;9.90;;;6.20;;
56399;SDS011;42298;53.638;9.876;2024-02-14T10:11:12;9.93;;;5.70;;
56399;SDS011;42298;53.638;9.876;2024-02-14T10:13:39;7.90;;;5.07;;
56399;SDS011;42298;53.638;9.876;2024-02-14T10:16:05;7.23;;;4.57;;
56399;SDS011;42298;53.638;9.876;2024-02-14T10:18:32;8.33;;;5.20;;
56399;SDS011;42298;53.638;9.876;2024-02-14T10:20:58;7.53;;;4.90;;
56399;SDS011;42298;53.638;9.876;2024-02-14T10:23:23;6.80;;;4.47;;
56399;SDS011;42298;53.638;9.876;2024-02-14T10:25:55;6.97;;;4.33;;
56399;SDS011;42298;53.638;9.876;2024-02-14T10:28:22;6.80;;;4.43;;
56399;SDS011;42298;53.638;9.876;2024-02-14T10:30:48;7.57;;;4.43;;
56399;SDS011;42298;53.638;9.876;2024-02-14T10:33:16;7.65;;;5.25;;
56399;SDS011;42298;53.638;9.876;2024-02-14T10:35:44;6.03;;;4.17;;
56399;SDS011;42298;53.638;9.876;2024-02-14T10:38:11;6.13;;;4.13;;
56399;SDS011;42298;53.638;9.876;2024-02-14T10:40:37;6.55;;;4.13;;
56399;SDS011;42298;53.638;9.876;2024-02-14T10:43:07;7.53;;;5.17;;
56399;SDS011;42298;53.638;9.876;2024-02-14T10:45:36;5.90;;;4.30;;
56399;SDS011;42298;53.638;9.876;2024-02-14T10:48:03;8.70;;;5.45;;
56399;SDS011;42298;53.638;9.876;2024-02-14T10:50:32;7.13;;;4.70;;
56399;SDS011;42298;53.638;9.876;2024-02-14T10:53:00;7.90;;;4.35;;
56399;SDS011;42298;53.638;9.876;2024-02-14T10:55:32;7.93;;;4.75;;
56399;SDS011;42298;53.638;9.876;2024-02-14T10:57:58;7.18;;;5.28;;
56399;SDS011;42298;53.638;9.876;2024-02-14T11:00:24;7.80;;;4.85;;
56399;SDS011;42298;53.638;9.876;2024-02-14T11:02:50;6.07;;;4.20;;
56399;SDS011;42298;53.638;9.876;2024-02-14T11:05:18;6.07;;;4.50;;
56399;SDS011;42298;53.638;9.876;2024-02-14T11:07:47;5.00;;;3.70;;
56399;SDS011;42298;53.638;9.876;2024-02-14T11:10:14;5.88;;;4.00;;
56399;SDS011;42298;53.638;9.876;2024-02-14T11:12:41;6.57;;;4.25;;
56399;SDS011;42298;53.638;9.876;2024-02-14T11:15:16;6.10;;;4.03;;
56399;SDS011;42298;53.638;9.876;2024-02-14T11:17:45;5.97;;;4.28;;
56399;SDS011;42298;53.638;9.876;2024-02-14T11:22:39;6.97;;;4.47;;
56399;SDS011;42298;53.638;9.876;2024-02-14T11:25:07;9.02;;;5.78;;
56399;SDS011;42298;53.638;9.876;2024-02-14T11:27:44;7.95;;;5.20;;
56399;SDS011;42298;53.638;9.876;2024-02-14T11:30:10;6.35;;;4.40;;
56399;SDS011;42298;53.638;9.876;2024-02-14T11:32:37;7.00;;;4.90;;
56399;SDS011;42298;53.638;9.876;2024-02-14T11:35:07;8.45;;;5.43;;
56399;SDS011;42298;53.638;9.876;2024-02-14T11:37:36;9.63;;;6.00;;
56399;SDS011;42298;53.638;9.876;2024-02-14T11:40:04;10.75;;;5.95;;
56399;SDS011;42298;53.638;9.876;2024-02-14T11:42:32;8.00;;;5.30;;
56399;SDS011;42298;53.638;9.876;2024-02-14T11:44:57;8.10;;;5.43;;
56399;SDS011;42298;53.638;9.876;2024-02-14T11:47:23;8.13;;;6.00;;
56399;SDS011;42298;53.638;9.876;2024-02-14T11:49:50;6.68;;;4.72;;
56399;SDS011;42298;53.638;9.876;2024-02-14T11:52:15;8.70;;;5.05;;
56399;SDS011;42298;53.638;9.876;2024-02-14T11:54:48;6.93;;;4.47;;
56399;SDS011;42298;53.638;9.876;2024-02-14T11:57:17;7.18;;;4.95;;
56399;SDS011;42298;53.638;9.876;2024-02-14T11:59:43;7.15;;;4.75;;
56399;SDS011;42298;53.638;9.876;2024-02-14T12:02:11;6.95;;;4.72;;
56399;SDS011;42298;53.638;9.876;2024-02-14T12:04:37;7.60;;;4.90;;
56399;SDS011;42298;53.638;9.876;2024-02-14T12:07:06;7.05;;;4.57;;
56399;SDS011;42298;53.638;9.876;2024-02-14T12:09:33;6.37;;;4.67;;
56399;SDS011;42298;53.638;9.876;2024-02-14T12:11:58;5.47;;;3.65;;
56399;SDS011;42298;53.638;9.876;2024-02-14T12:14:25;7.35;;;4.88;;
56399;SDS011;42298;53.638;9.876;2024-02-14T12:16:56;3.90;;;3.05;;
56399;SDS011;42298;53.638;9.876;2024-02-14T12:19:27;6.47;;;4.30;;
56399;SDS011;42298;53.638;9.876;2024-02-14T12:21:53;7.47;;;4.38;;
56399;SDS011;42298;53.638;9.876;2024-02-14T12:24:21;7.30;;;4.30;;
56399;SDS011;42298;53.638;9.876;2024-02-14T12:26:48;6.15;;;3.72;;
56399;SDS011;42298;53.638;9.876;2024-02-14T12:29:13;4.50;;;3.30;;
56399;SDS011;42298;53.638;9.876;2024-02-14T12:31:39;6.47;;;3.80;;
56399;SDS011;42298;53.638;9.876;2024-02-14T12:34:04;5.77;;;4.00;;
56399;SDS011;42298;53.638;9.876;2024-02-14T12:36:33;4.43;;;2.95;;
56399;SDS011;42298;53.638;9.876;2024-02-14T12:38:59;3.78;;;2.80;;
56399;SDS011;42298;53.638;9.876;2024-02-14T12:41:27;7.15;;;4.10;;
56399;SDS011;42298;53.638;9.876;2024-02-14T12:43:54;7.38;;;4.63;;
56399;SDS011;42298;53.638;9.876;2024-02-14T12:46:23;7.35;;;4.47;;
56399;SDS011;42298;53.638;9.876;2024-02-14T12:48:48;6.30;;;3.88;;
56399;SDS011;42298;53.638;9.876;2024-02-14T12:51:14;4.78;;;3.33;;
56399;SDS011;42298;53.638;9.876;2024-02-14T12:53:40;6.80;;;4.28;;
56399;SDS011;42298;53.638;9.876;2024-02-14T12:56:06;10.10;;;6.43;;
56399;SDS011;42298;53.638;9.876;2024-02-14T12:58:32;7.78;;;4.93;;
56399;SDS011;42298;53.638;9.876;2024-02-14T13:00:57;7.32;;;4.68;;
56399;SDS011;42298;53.638;9.876;2024-02-14T13:03:23;8.32;;;5.45;;
56399;SDS011;42298;53.638;9.876;2024-02-14T13:05:49;7.75;;;4.68;;
56399;SDS011;42298;53.638;9.876;2024-02-14T13:08:17;8.00;;;4.82;;
56399;SDS011;42298;53.638;9.876;2024-02-14T13:10:43;9.38;;;5.50;;
56399;SDS011;42298;53.638;9.876;2024-02-14T13:13:09;7.07;;;4.53;;
56399;SDS011;42298;53.638;9.876;2024-02-14T13:15:35;9.05;;;4.78;;
56399;SDS011;42298;53.638;9.876;2024-02-14T13:18:01;9.25;;;5.35;;
56399;SDS011;42298;53.638;9.876;2024-02-14T13:20:27;9.00;;;5.72;;
56399;SDS011;42298;53.638;9.876;2024-02-14T13:22:53;8.98;;;5.50;;
56399;SDS011;42298;53.638;9.876;2024-02-14T13:25:19;9.38;;;6.13;;
56399;SDS011;42298;53.638;9.876;2024-02-14T13:27:44;9.13;;;5.38;;
56399;SDS011;42298;53.638;9.876;2024-02-14T13:30:10;10.70;;;6.95;;
56399;SDS011;42298;53.638;9.876;2024-02-14T13:32:35;10.10;;;5.70;;
56399;SDS011;42298;53.638;9.876;2024-02-14T13:35:01;11.15;;;7.18;;
56399;SDS011;42298;53.638;9.876;2024-02-14T13:37:27;9.60;;;5.80;;
56399;SDS011;42298;53.638;9.876;2024-02-14T13:39:53;11.23;;;6.72;;
56399;SDS011;42298;53.638;9.876;2024-02-14T13:42:19;9.93;;;6.72;;
56399;SDS011;42298;53.638;9.876;2024-02-14T13:44:44;10.30;;;6.90;;
56399;SDS011;42298;53.638;9.876;2024-02-14T13:47:10;12.75;;;7.43;;
56399;SDS011;42298;53.638;9.876;2024-02-14T13:49:35;9.50;;;6.32;;
56399;SDS011;42298;53.638;9.876;2024-02-14T13:52:00;13.27;;;8.38;;
56399;SDS011;42298;53.638;9.876;2024-02-14T13:54:26;12.55;;;8.25;;
56399;SDS011;42298;53.638;9.876;2024-02-14T13:56:51;12.15;;;7.72;;
56399;SDS011;42298;53.638;9.876;2024-02-14T13:59:17;11.05;;;7.20;;
56399;SDS011;42298;53.638;9.876;2024-02-14T14:01:43;12.00;;;7.75;;
56399;SDS011;42298;53.638;9.876;2024-02-14T14:04:10;12.23;;;8.07;;
56399;SDS011;42298;53.638;9.876;2024-02-14T14:06:35;11.90;;;8.00;;
56399;SDS011;42298;53.638;9.876;2024-02-14T14:09:01;12.02;;;7.78;;
56399;SDS011;42298;53.638;9.876;2024-02-14T14:11:28;13.30;;;10.00;;
56399;SDS011;42298;53.638;9.876;2024-02-14T14:13:53;10.15;;;7.03;;
56399;SDS011;42298;53.638;9.876;2024-02-14T14:16:18;13.48;;;8.77;;
56399;SDS011;42298;53.638;9.876;2024-02-14T14:18:46;10.48;;;7.35;;
56399;SDS011;42298;53.638;9.876;2024-02-14T14:21:12;11.73;;;8.02;;
56399;SDS011;42298;53.638;9.876;2024-02-14T14:23:37;13.90;;;8.95;;
56399;SDS011;42298;53.638;9.876;2024-02-14T14:26:03;13.40;;;8.50;;
56399;SDS011;42298;53.638;9.876;2024-02-14T14:28:28;13.02;;;8.93;;
56399;SDS011;42298;53.638;9.876;2024-02-14T14:30:54;12.43;;;7.28;;
56399;SDS011;42298;53.638;9.876;2024-02-14T14:33:20;13.63;;;8.90;;
56399;SDS011;42298;53.638;9.876;2024-02-14T14:35:45;12.80;;;9.55;;
56399;SDS011;42298;53.638;9.876;2024-02-14T14:38:11;12.57;;;9.05;;
56399;SDS011;42298;53.638;9.876;2024-02-14T14:40:36;13.35;;;9.70;;
56399;SDS011;42298;53.638;9.876;2024-02-14T14:43:02;12.45;;;8.25;;